createdAt,value
2023-01-19T00:01:50.272Z,85.22
2023-01-19T00:04:16.585Z,85.65
2023-01-19T00:06:42.887Z,85.75
2023-01-19T00:09:09.222Z,85.97
2023-01-19T00:11:35.656Z,85.80
2023-01-19T00:14:02.320Z,85.85
2023-01-19T00:16:28.760Z,85.42
2023-01-19T00:18:55.095Z,84.88
2023-01-19T00:21:21.937Z,85.13
2023-01-19T00:23:48.793Z,85.11
2023-01-19T00:26:16.130Z,85.17
2023-01-19T00:28:43.571Z,84.90
2023-01-19T00:31:10.366Z,84.85
2023-01-19T00:33:36.784Z,85.12
2023-01-19T00:36:03.928Z,85.32
2023-01-19T00:38:30.536Z,85.37
2023-01-19T00:40:56.851Z,85.59
2023-01-19T00:43:23.180Z,85.49
2023-01-19T00:45:49.520Z,85.07
2023-01-19T00:48:15.883Z,84.67
2023-01-19T00:50:42.603Z,84.79
2023-01-19T00:53:09.543Z,84.76
2023-01-19T00:55:38.723Z,84.62
2023-01-19T00:58:05.030Z,84.95
2023-01-19T01:00:31.337Z,85.11
2023-01-19T01:02:57.838Z,85.56
2023-01-19T01:05:24.502Z,85.25
2023-01-19T01:07:50.992Z,85.42
2023-01-19T01:10:21.122Z,86.29
2023-01-19T01:13:20.604Z,86.05
2023-01-19T01:15:34.360Z,85.70
2023-01-19T01:18:00.949Z,85.46
2023-01-19T01:20:28.275Z,85.29
2023-01-19T01:22:55.397Z,85.15
2023-01-19T01:25:23.869Z,84.75
2023-01-19T01:27:50.396Z,85.16
2023-01-19T01:30:17.635Z,85.14
2023-01-19T01:32:44.006Z,84.69
2023-01-19T01:35:12.069Z,84.89
2023-01-19T01:37:38.971Z,84.54
2023-01-19T01:40:06.724Z,84.16
2023-01-19T01:42:33.725Z,84.21
2023-01-19T01:45:03.526Z,84.03
2023-01-19T01:47:36.474Z,84.27
2023-01-19T01:50:12.596Z,84.20
2023-01-19T01:52:44.903Z,84.92
2023-01-19T01:55:32.559Z,84.87
2023-01-19T01:58:04.114Z,84.57
2023-01-19T02:00:31.334Z,84.46
2023-01-19T02:02:58.534Z,84.90
2023-01-19T02:05:33.183Z,84.68
2023-01-19T02:08:07.753Z,84.91
2023-01-19T02:10:34.045Z,85.08
2023-01-19T02:13:00.959Z,85.33
2023-01-19T02:15:27.469Z,85.17
2023-01-19T02:17:53.821Z,84.51
2023-01-19T02:20:24.955Z,84.21
2023-01-19T02:22:52.239Z,84.34
2023-01-19T02:25:19.931Z,84.65
2023-01-19T02:27:47.773Z,84.99
2023-01-19T02:30:14.999Z,84.78
2023-01-19T02:32:41.372Z,84.80
2023-01-19T02:35:08.089Z,84.67
2023-01-19T02:37:37.037Z,84.89
2023-01-19T02:40:06.222Z,85.16
2023-01-19T02:42:37.818Z,85.12
2023-01-19T02:45:05.268Z,85.04
2023-01-19T02:47:38.644Z,84.90
2023-01-19T02:50:36.370Z,84.58
2023-01-19T02:53:32.497Z,84.67
2023-01-19T02:56:04.794Z,84.40
2023-01-19T02:58:44.925Z,84.97
2023-01-19T03:01:21.568Z,85.10
2023-01-19T03:04:02.187Z,85.24
2023-01-19T03:06:44.199Z,85.52
2023-01-19T03:09:33.859Z,85.07
2023-01-19T03:12:08.723Z,84.82
2023-01-19T03:14:40.456Z,84.30
2023-01-19T03:17:09.605Z,84.94
2023-01-19T03:19:44.815Z,84.75
2023-01-19T03:22:14.847Z,84.93
2023-01-19T03:24:44.934Z,85.00
2023-01-19T03:27:29.024Z,84.61
2023-01-19T03:30:01.953Z,84.92
2023-01-19T03:32:34.295Z,84.97
2023-01-19T03:35:03.691Z,84.59
2023-01-19T03:37:31.606Z,84.65
2023-01-19T03:39:58.127Z,84.85
2023-01-19T03:42:27.009Z,85.02
2023-01-19T03:44:55.180Z,84.68
2023-01-19T03:47:23.296Z,84.53
2023-01-19T03:49:52.406Z,84.44
2023-01-19T03:52:27.205Z,84.37
2023-01-19T03:54:53.508Z,84.68
2023-01-19T03:57:19.850Z,84.95
2023-01-19T03:59:46.147Z,84.94
2023-01-19T04:02:12.505Z,84.79
2023-01-19T04:04:38.923Z,84.88
2023-01-19T04:07:05.228Z,84.83
2023-01-19T04:09:31.539Z,84.72
2023-01-19T04:11:57.828Z,84.76
2023-01-19T04:14:24.124Z,84.68
2023-01-19T04:16:50.419Z,85.07
2023-01-19T04:19:16.724Z,84.84
2023-01-19T04:21:43.016Z,84.77
2023-01-19T04:24:10.573Z,84.65
2023-01-19T04:26:36.861Z,84.94
2023-01-19T04:29:03.289Z,84.56
2023-01-19T04:31:29.743Z,84.57
2023-01-19T04:33:56.147Z,84.60
2023-01-19T04:36:22.504Z,84.06
2023-01-19T04:38:48.873Z,83.72
2023-01-19T04:41:15.234Z,83.77
2023-01-19T04:43:41.563Z,83.51
2023-01-19T04:46:07.971Z,83.90
2023-01-19T04:48:34.372Z,83.49
2023-01-19T04:51:00.670Z,83.41
2023-01-19T04:53:26.981Z,83.30
2023-01-19T04:55:56.073Z,83.47
2023-01-19T04:58:22.669Z,83.25
2023-01-19T05:00:49.100Z,83.03
2023-01-19T05:03:15.500Z,82.65
2023-01-19T05:05:41.861Z,83.03
2023-01-19T05:08:08.180Z,83.17
2023-01-19T05:10:34.471Z,83.21
2023-01-19T05:13:01.165Z,83.24
2023-01-19T05:15:27.709Z,83.12
2023-01-19T05:17:54.028Z,83.49
2023-01-19T05:20:20.324Z,83.83
2023-01-19T05:22:51.090Z,83.49
2023-01-19T05:25:18.375Z,83.33
2023-01-19T05:27:45.162Z,82.98
2023-01-19T05:30:13.078Z,82.67
2023-01-19T05:32:39.750Z,82.65
2023-01-19T05:35:06.673Z,82.79
2023-01-19T05:37:33.051Z,82.69
2023-01-19T05:39:59.620Z,82.67
2023-01-19T05:42:25.944Z,82.27
2023-01-19T05:44:54.562Z,82.47
2023-01-19T05:47:20.967Z,82.52
2023-01-19T05:49:47.286Z,82.33
2023-01-19T05:52:13.700Z,82.42
2023-01-19T05:54:40.012Z,82.49
2023-01-19T05:57:07.028Z,82.33
2023-01-19T05:59:33.463Z,82.65
2023-01-19T06:01:59.817Z,82.72
2023-01-19T06:04:26.171Z,82.99
2023-01-19T06:06:52.504Z,83.23
2023-01-19T06:09:19.037Z,83.57
2023-01-19T06:11:46.320Z,83.86
2023-01-19T06:14:13.270Z,84.46
2023-01-19T06:16:39.955Z,84.63
2023-01-19T06:19:06.455Z,84.86
2023-01-19T06:21:33.695Z,85.20
2023-01-19T06:24:00.168Z,86.20
2023-01-19T06:26:26.516Z,86.56
2023-01-19T06:28:52.850Z,87.36
2023-01-19T06:31:19.250Z,87.49
2023-01-19T06:33:45.594Z,87.79
2023-01-19T06:36:11.897Z,87.58
2023-01-19T06:38:38.279Z,88.06
2023-01-19T06:41:04.727Z,88.78
2023-01-19T06:43:31.578Z,89.62
2023-01-19T06:45:58.394Z,89.83
2023-01-19T06:48:24.720Z,90.11
2023-01-19T06:50:51.031Z,90.27
2023-01-19T06:53:17.928Z,90.69
2023-01-19T06:55:44.308Z,91.11
2023-01-19T06:58:11.660Z,91.34
2023-01-19T07:00:38.310Z,92.34
2023-01-19T07:03:08.446Z,92.53
2023-01-19T07:05:36.046Z,92.80
2023-01-19T07:08:02.565Z,93.12
2023-01-19T07:11:25.160Z,93.59
2023-01-19T07:13:15.772Z,93.62
2023-01-19T07:15:42.106Z,93.79
2023-01-19T07:18:08.592Z,93.67
2023-01-19T07:20:36.000Z,94.25
2023-01-19T07:23:02.777Z,94.49
2023-01-19T07:25:29.944Z,94.72
2023-01-19T07:27:58.371Z,94.61
2023-01-19T07:30:24.747Z,94.76
2023-01-19T07:32:51.058Z,95.30
2023-01-19T07:35:17.350Z,95.56
2023-01-19T07:37:43.641Z,95.75
2023-01-19T07:40:10.677Z,95.99
2023-01-19T07:42:36.980Z,96.07
2023-01-19T07:45:03.493Z,96.14
2023-01-19T07:47:29.861Z,96.38
2023-01-19T07:49:56.166Z,96.26
2023-01-19T07:52:22.621Z,96.67
2023-01-19T07:54:48.979Z,96.78
2023-01-19T07:57:15.280Z,96.41
2023-01-19T07:59:41.579Z,96.53
2023-01-19T08:02:10.560Z,95.95
2023-01-19T08:04:37.017Z,96.32
2023-01-19T08:07:03.416Z,96.35
2023-01-19T08:09:29.721Z,96.31
2023-01-19T08:11:56.023Z,96.20
2023-01-19T08:14:22.352Z,96.50
2023-01-19T08:16:48.662Z,96.88
2023-01-19T08:19:14.955Z,97.07
2023-01-19T08:21:41.279Z,96.67
2023-01-19T08:24:18.170Z,96.32
2023-01-19T08:26:44.522Z,96.21
2023-01-19T08:29:10.814Z,96.41
2023-01-19T08:31:37.178Z,96.52
2023-01-19T08:34:03.550Z,96.56
2023-01-19T08:36:29.848Z,96.79
2023-01-19T08:38:56.239Z,96.51
2023-01-19T08:41:22.600Z,96.55
2023-01-19T08:43:49.344Z,96.77
2023-01-19T08:46:16.029Z,96.63
2023-01-19T08:48:42.395Z,96.27
2023-01-19T08:51:08.693Z,96.72
2023-01-19T08:53:34.986Z,97.04
2023-01-19T08:56:01.342Z,97.34
2023-01-19T08:58:28.006Z,96.99
2023-01-19T09:00:54.863Z,96.53
2023-01-19T09:03:21.568Z,96.65
2023-01-19T09:05:48.317Z,95.94
2023-01-19T09:08:15.707Z,95.58
2023-01-19T09:10:50.022Z,95.38
2023-01-19T09:13:17.654Z,95.72
2023-01-19T09:15:45.287Z,96.08
2023-01-19T09:18:14.856Z,96.35
2023-01-19T09:20:42.505Z,96.47
2023-01-19T09:23:10.295Z,96.21
2023-01-19T09:25:38.051Z,96.24
2023-01-19T09:28:08.948Z,96.38
2023-01-19T09:30:40.102Z,96.38
2023-01-19T09:33:09.547Z,96.21
2023-01-19T09:35:36.617Z,95.58
2023-01-19T09:38:03.627Z,94.70
2023-01-19T09:40:30.535Z,94.58
2023-01-19T09:43:11.676Z,93.83
2023-01-19T09:45:56.442Z,93.35
2023-01-19T09:48:28.622Z,92.94
2023-01-19T09:50:59.379Z,92.63
2023-01-19T09:53:39.368Z,92.51
2023-01-19T09:56:10.765Z,92.36
2023-01-19T09:58:37.063Z,92.39
2023-01-19T10:01:15.393Z,92.53
2023-01-19T10:03:41.765Z,92.19
2023-01-19T10:06:14.200Z,92.00
2023-01-19T10:09:14.762Z,92.72
2023-01-19T10:11:52.984Z,92.81
2023-01-19T10:14:36.385Z,92.69
2023-01-19T10:17:21.195Z,92.49
2023-01-19T10:19:53.737Z,92.36
2023-01-19T10:22:22.915Z,92.02
2023-01-19T10:24:54.626Z,92.28
2023-01-19T10:27:26.352Z,92.23
2023-01-19T10:29:52.687Z,92.57
2023-01-19T10:32:25.009Z,92.52
2023-01-19T10:34:52.838Z,92.84
2023-01-19T10:37:39.755Z,93.20
2023-01-19T10:40:09.155Z,93.10
2023-01-19T10:42:37.149Z,93.23
2023-01-19T10:45:04.368Z,93.48
2023-01-19T10:47:35.068Z,93.21
2023-01-19T10:50:23.089Z,92.96
2023-01-19T10:52:51.429Z,92.56
2023-01-19T10:55:31.229Z,92.42
2023-01-19T10:57:59.110Z,92.55
2023-01-19T11:00:31.549Z,92.56
2023-01-19T11:02:57.887Z,92.76
2023-01-19T11:05:30.171Z,92.19
2023-01-19T11:07:56.997Z,92.65
2023-01-19T11:10:25.975Z,92.88
2023-01-19T11:13:03.208Z,93.33
2023-01-19T11:15:33.062Z,93.47
2023-01-19T11:17:59.808Z,92.98
2023-01-19T11:20:29.934Z,92.82
2023-01-19T11:23:22.189Z,92.45
2023-01-19T11:25:50.092Z,92.04
2023-01-19T11:28:32.715Z,92.00
2023-01-19T11:31:01.615Z,91.94
2023-01-19T11:33:37.774Z,90.85
2023-01-19T11:36:15.711Z,90.90
2023-01-19T11:38:44.836Z,90.61
2023-01-19T11:41:32.773Z,91.39
2023-01-19T11:44:20.842Z,91.26
2023-01-19T11:46:52.047Z,91.31
2023-01-19T11:49:25.988Z,91.38
2023-01-19T11:52:02.607Z,91.37
2023-01-19T11:54:34.673Z,90.95
2023-01-19T11:57:10.412Z,91.03
2023-01-19T11:59:36.931Z,90.78
2023-01-19T12:02:16.863Z,90.51
2023-01-19T12:04:44.952Z,89.97
2023-01-19T12:07:13.011Z,89.81
2023-01-19T12:09:45.527Z,89.22
2023-01-19T12:12:39.107Z,89.54
2023-01-19T12:15:14.973Z,88.87
2023-01-19T12:17:48.402Z,87.55
2023-01-19T12:20:27.816Z,86.41
2023-01-19T12:23:18.975Z,86.96
2023-01-19T12:26:15.855Z,86.72
2023-01-19T12:28:47.275Z,85.89
2023-01-19T12:31:18.683Z,86.17
2023-01-19T12:33:45.189Z,86.01
2023-01-19T12:36:26.564Z,86.50
2023-01-19T12:39:08.211Z,87.75
2023-01-19T12:41:39.563Z,88.07
2023-01-19T12:44:11.997Z,88.65
2023-01-19T12:46:42.017Z,89.44
2023-01-19T12:49:36.971Z,89.87
2023-01-19T12:52:26.237Z,90.27
2023-01-19T12:55:00.030Z,90.41
2023-01-19T12:57:48.596Z,90.86
2023-01-19T13:00:24.067Z,91.07
2023-01-19T13:02:59.403Z,91.67
2023-01-19T13:05:32.839Z,92.55
2023-01-19T13:08:02.390Z,92.87
2023-01-19T13:10:53.628Z,92.46
2023-01-19T13:13:25.538Z,92.64
2023-01-19T13:15:55.452Z,93.07
2023-01-19T13:18:24.551Z,93.13
2023-01-19T13:20:56.878Z,92.73
2023-01-19T13:23:26.024Z,91.55
2023-01-19T13:25:59.893Z,90.85
2023-01-19T13:28:42.283Z,89.46
2023-01-19T13:31:09.324Z,87.89
2023-01-19T13:33:55.977Z,87.28
2023-01-19T13:36:35.159Z,87.39
2023-01-19T13:39:07.761Z,86.67
2023-01-19T13:41:40.167Z,86.78
2023-01-19T13:44:13.643Z,86.69
2023-01-19T13:46:40.855Z,87.04
2023-01-19T13:49:18.955Z,87.50
2023-01-19T13:51:45.386Z,88.27
2023-01-19T13:54:16.472Z,88.03
2023-01-19T13:56:48.004Z,88.69
2023-01-19T13:59:14.331Z,88.76
2023-01-19T14:01:43.501Z,89.01
2023-01-19T14:04:33.136Z,88.28
2023-01-19T14:07:05.858Z,88.42
2023-01-19T14:09:32.261Z,88.18
2023-01-19T14:12:16.762Z,88.29
2023-01-19T14:14:45.634Z,88.50
2023-01-19T14:17:29.173Z,88.17
2023-01-19T14:19:59.799Z,87.66
2023-01-19T14:22:41.743Z,87.65
2023-01-19T14:25:33.976Z,87.97
2023-01-19T14:28:43.815Z,88.69
2023-01-19T14:31:24.837Z,89.43
2023-01-19T14:33:56.265Z,89.81
2023-01-19T14:36:26.474Z,90.62
2023-01-19T14:38:55.877Z,90.89
2023-01-19T14:41:30.192Z,91.50
2023-01-19T14:43:57.481Z,91.73
2023-01-19T14:46:24.744Z,91.78
2023-01-19T14:48:55.838Z,91.56
2023-01-19T14:51:24.270Z,91.67
2023-01-19T14:53:54.320Z,91.79
2023-01-19T14:56:29.417Z,91.86
2023-01-19T14:59:01.496Z,92.21
2023-01-19T15:01:28.762Z,93.06
2023-01-19T15:03:55.584Z,93.50
2023-01-19T15:06:23.466Z,93.81
2023-01-19T15:08:50.767Z,94.01
2023-01-19T15:11:40.485Z,94.54
2023-01-19T15:14:06.923Z,94.64
2023-01-19T15:16:34.634Z,95.13
2023-01-19T15:19:01.018Z,95.27
2023-01-19T15:21:27.359Z,95.40
2023-01-19T15:23:54.434Z,95.40
2023-01-19T15:26:24.773Z,95.66
2023-01-19T15:28:51.778Z,96.08
2023-01-19T15:31:20.688Z,96.13
2023-01-19T15:33:47.585Z,96.16
2023-01-19T15:36:19.813Z,96.36
2023-01-19T15:38:46.854Z,96.36
2023-01-19T15:41:23.449Z,96.24
2023-01-19T15:43:51.159Z,96.28
2023-01-19T15:46:20.968Z,96.39
2023-01-19T15:48:48.155Z,96.81
2023-01-19T15:51:16.873Z,97.07
2023-01-19T15:53:44.028Z,97.53
2023-01-19T15:56:16.356Z,97.60
2023-01-19T15:58:43.652Z,97.76
2023-01-19T16:01:14.292Z,97.79
2023-01-19T16:03:42.151Z,97.78
2023-01-19T16:06:10.577Z,97.96
2023-01-19T16:08:38.536Z,98.21
2023-01-19T16:11:11.717Z,97.82
2023-01-19T16:13:38.706Z,98.00
2023-01-19T16:16:16.152Z,97.59
2023-01-19T16:18:43.555Z,97.66
2023-01-19T16:21:10.128Z,97.83
2023-01-19T16:23:36.432Z,97.85
2023-01-19T16:26:07.080Z,97.67
2023-01-19T16:28:35.379Z,97.60
2023-01-19T16:31:01.688Z,97.71
2023-01-19T16:33:28.003Z,97.75
2023-01-19T16:35:54.324Z,97.51
2023-01-19T16:38:22.663Z,96.81
2023-01-19T16:40:49.118Z,96.18
2023-01-19T16:43:15.469Z,96.14
2023-01-19T16:46:02.533Z,95.76
2023-01-19T16:48:28.990Z,95.70
2023-01-19T16:51:05.948Z,95.30
2023-01-19T16:53:33.930Z,94.58
2023-01-19T16:56:21.790Z,94.64
2023-01-19T16:58:48.133Z,94.57
2023-01-19T17:01:19.661Z,94.88
2023-01-19T17:03:46.510Z,94.75
2023-01-19T17:06:15.115Z,94.56
2023-01-19T17:08:41.534Z,94.59
2023-01-19T17:11:13.905Z,94.75
2023-01-19T17:13:40.267Z,94.67
2023-01-19T17:16:07.252Z,94.92
2023-01-19T17:18:35.531Z,94.85
2023-01-19T17:21:04.666Z,94.88
2023-01-19T17:23:31.299Z,94.81
2023-01-19T17:25:58.753Z,94.83
2023-01-19T17:28:25.902Z,94.72
2023-01-19T17:30:52.786Z,94.70
2023-01-19T17:33:24.082Z,94.40
2023-01-19T17:35:50.557Z,94.06
2023-01-19T17:38:17.134Z,94.53
2023-01-19T17:40:43.423Z,94.58
2023-01-19T17:43:09.739Z,97.74
2023-01-19T17:45:36.880Z,100.00
2023-01-19T17:48:04.539Z,100.00
2023-01-19T17:50:32.882Z,100.00
2023-01-19T17:52:59.197Z,99.97
2023-01-19T17:55:25.567Z,98.76
2023-01-19T17:57:51.906Z,98.62
2023-01-19T18:00:18.740Z,98.71
2023-01-19T18:02:45.109Z,97.73
2023-01-19T18:05:11.889Z,97.42
2023-01-19T18:07:39.291Z,96.88
2023-01-19T18:10:07.391Z,96.99
2023-01-19T18:12:34.120Z,97.01
2023-01-19T18:15:00.425Z,97.04
2023-01-19T18:17:26.743Z,97.08
2023-01-19T18:19:53.061Z,97.04
2023-01-19T18:22:19.363Z,96.92
2023-01-19T18:24:45.664Z,96.66
2023-01-19T18:27:12.014Z,96.42
2023-01-19T18:29:38.362Z,96.59
2023-01-19T18:32:04.980Z,96.57
2023-01-19T18:34:31.345Z,96.63
2023-01-19T18:36:57.647Z,96.98
2023-01-19T18:39:24.025Z,97.20
2023-01-19T18:41:50.347Z,97.37
2023-01-19T18:44:16.647Z,97.25
2023-01-19T18:46:42.976Z,97.33
2023-01-19T18:49:09.344Z,97.17
2023-01-19T18:51:35.888Z,97.24
2023-01-19T18:54:02.238Z,97.46
2023-01-19T18:56:28.533Z,97.39
2023-01-19T18:58:54.966Z,97.65
2023-01-19T19:01:27.346Z,97.67
2023-01-19T19:03:55.491Z,97.92
2023-01-19T19:06:23.150Z,97.65
2023-01-19T19:08:51.435Z,97.75
2023-01-19T19:11:24.616Z,97.62
2023-01-19T19:13:56.064Z,97.39
2023-01-19T19:16:22.869Z,97.36
2023-01-19T19:18:49.351Z,97.21
2023-01-19T19:21:17.159Z,97.32
2023-01-19T19:23:43.535Z,97.38
2023-01-19T19:26:12.072Z,97.22
2023-01-19T19:28:40.155Z,96.21
2023-01-19T19:31:12.721Z,95.82
2023-01-19T19:33:39.714Z,95.38
2023-01-19T19:36:08.058Z,95.04
2023-01-19T19:38:34.941Z,94.59
2023-01-19T19:41:05.380Z,94.36
2023-01-19T19:43:32.683Z,94.36
2023-01-19T19:46:02.936Z,93.96
2023-01-19T19:48:29.315Z,93.49
2023-01-19T19:50:57.530Z,93.47
2023-01-19T19:53:26.569Z,93.78
2023-01-19T19:56:02.754Z,93.93
2023-01-19T19:58:29.621Z,94.33
2023-01-19T20:00:56.512Z,94.83
2023-01-19T20:03:26.140Z,94.73
2023-01-19T20:05:52.849Z,94.25
2023-01-19T20:08:19.264Z,94.18
2023-01-19T20:10:45.542Z,94.11
2023-01-19T20:13:11.840Z,93.80
2023-01-19T20:15:38.933Z,93.55
2023-01-19T20:18:06.178Z,93.28
2023-01-19T20:20:33.458Z,93.45
2023-01-19T20:23:00.961Z,93.38
2023-01-19T20:25:28.227Z,92.94
2023-01-19T20:27:55.383Z,92.83
2023-01-19T20:30:23.797Z,93.26
2023-01-19T20:32:50.126Z,93.46
2023-01-19T20:35:16.447Z,93.76
2023-01-19T20:37:42.741Z,93.81
2023-01-19T20:40:09.565Z,92.83
2023-01-19T20:42:35.967Z,92.67
2023-01-19T20:45:03.287Z,92.44
2023-01-19T20:47:29.630Z,92.39
2023-01-19T20:49:55.912Z,92.47
2023-01-19T20:52:22.211Z,92.54
2023-01-19T20:54:48.516Z,92.64
2023-01-19T20:57:14.867Z,92.94
2023-01-19T20:59:41.179Z,92.83
2023-01-19T21:02:07.536Z,93.02
2023-01-19T21:04:33.912Z,92.68
2023-01-19T21:07:00.222Z,92.02
2023-01-19T21:09:26.520Z,91.81
2023-01-19T21:11:52.812Z,91.53
2023-01-19T21:14:19.108Z,91.85
2023-01-19T21:16:45.514Z,91.21
2023-01-19T21:19:11.845Z,91.50
2023-01-19T21:21:38.195Z,90.98
2023-01-19T21:24:05.207Z,90.91
2023-01-19T21:26:31.655Z,91.07
2023-01-19T21:28:59.142Z,91.23
2023-01-19T21:31:27.687Z,90.91
2023-01-19T21:33:55.108Z,91.19
2023-01-19T21:36:21.530Z,91.39
2023-01-19T21:38:48.198Z,91.55
2023-01-19T21:41:14.812Z,91.57
2023-01-19T21:43:41.121Z,91.58
2023-01-19T21:46:19.852Z,91.18
2023-01-19T21:48:46.742Z,91.53
2023-01-19T21:51:14.279Z,91.55
2023-01-19T21:53:41.052Z,91.47
2023-01-19T21:56:09.403Z,91.68
2023-01-19T21:58:35.922Z,91.31
2023-01-19T22:01:07.864Z,91.35
2023-01-19T22:03:34.272Z,91.49
2023-01-19T22:06:05.442Z,91.41
2023-01-19T22:08:32.091Z,90.90
2023-01-19T22:11:09.815Z,90.88
2023-01-19T22:13:37.072Z,90.49
2023-01-19T22:16:05.487Z,90.71
2023-01-19T22:18:31.805Z,91.38
2023-01-19T22:21:07.775Z,90.97
2023-01-19T22:23:34.237Z,90.98
2023-01-19T22:26:00.608Z,90.99
2023-01-19T22:28:29.909Z,91.22
2023-01-19T22:31:03.412Z,91.18
2023-01-19T22:33:29.813Z,91.29
2023-01-19T22:36:08.884Z,91.04
2023-01-19T22:38:35.192Z,90.83
2023-01-19T22:41:01.557Z,90.38
2023-01-19T22:43:27.877Z,90.87
2023-01-19T22:45:54.194Z,91.04
2023-01-19T22:48:20.500Z,91.44
2023-01-19T22:50:46.787Z,91.46
2023-01-19T22:53:13.102Z,91.54
2023-01-19T22:55:39.406Z,91.45
2023-01-19T22:58:05.730Z,91.52
2023-01-19T23:00:32.049Z,91.06
2023-01-19T23:02:58.363Z,91.10
2023-01-19T23:05:24.663Z,90.56
2023-01-19T23:07:51.088Z,90.63
2023-01-19T23:10:17.454Z,90.17
2023-01-19T23:12:43.760Z,90.70
2023-01-19T23:15:10.412Z,90.29
2023-01-19T23:17:36.721Z,90.37
2023-01-19T23:20:04.032Z,90.42
2023-01-19T23:22:30.799Z,90.05
2023-01-19T23:24:57.104Z,90.31
2023-01-19T23:27:23.451Z,90.42
2023-01-19T23:29:49.755Z,90.94
2023-01-19T23:32:16.633Z,90.87
2023-01-19T23:34:43.027Z,91.32
2023-01-19T23:37:10.232Z,91.18
2023-01-19T23:39:36.981Z,91.18
2023-01-19T23:42:05.202Z,91.18
2023-01-19T23:44:31.516Z,91.14
2023-01-19T23:46:58.092Z,91.42
2023-01-19T23:49:24.672Z,91.64
2023-01-19T23:51:51.000Z,91.58
2023-01-19T23:54:17.592Z,91.22
2023-01-19T23:56:44.656Z,90.88
2023-01-19T23:59:13.507Z,90.53
